PORTS® Data Listing: 9414750 Alameda, CA

CO-OPS RAW PORTS DATA

************************      PRELIMINARY DATA      ************************** 

     THIS RAW DATA HAS NOT BEEN SUBJECT TO THE NATIONAL OCEAN SERVICE'S        
     QUALITY CONTROL OR QUALITY ASSURANCE PROCEDURES AND DOES NOT MEET         
     THE CRITERIA AND STANDARDS OF OFFICIAL NATIONAL OCEAN SERVICE             
     DATA.  IT IS RELEASED FOR LIMITED PUBLIC USE AS PRELIMINARY DATA TO       
     BE USED ONLY WITH APPROPRIATE CAUTION.                                    

************************      PRELIMINARY DATA      ************************** 


       CD   -   Calendar date
       T    -   Time
       TZ   -   Timezone
       PW   -   Predicted water level (feet above MLLW)
       OW   -   Observed water level (feet above MLLW)
       WS   -   Wind speed (knots)
       WD   -   Wind direction (degrees true)
       WG   -   Wind gust (knots)
       AT   -   Air temperature (degrees farenheit)
       WT   -   Water temperature (degrees farenheit)
       AP   -   Air pressure (millibars)
       SA   -   Salinty (PSU - Practical Salinity Units)
       SG   -   Specific gravity
       RH   -   Relative humidity
       AG   -   Air gap (feet)
       VI   -   Visibility (nautical miles)

       ** NOTE **
       A variable that has its data fields filled with "9"s, indicates that
       data was not collected for that sample period.
       **********


STATION NAME: Alameda (9414750)
****************************************************************************************************
    CD       T    TZ    PW     OW    WS   WD   WG    AT    WT    AP    SA    SG     RH    AG   VI
****************************************************************************************************
2019/09/17 05:54 PDT    2.87   2.92    4   90    5  58.8  69.1 1017.5 -9.9 -9.999 -99.9 -99.99 -9.99
2019/09/17 06:00 PDT    2.77   2.84    1   89    5  58.6  69.1 1017.6 -9.9 -9.999 -99.9 -99.99 -9.99
2019/09/17 06:06 PDT    2.66   2.74    1   77    4  58.8  69.1 1017.7 -9.9 -9.999 -99.9 -99.99 -9.99
2019/09/17 06:12 PDT    2.56   2.64    2   76    4  59.4  69.1 1017.7 -9.9 -9.999 -99.9 -99.99 -9.99
2019/09/17 06:18 PDT    2.46   2.55    3   84    5  58.8  69.1 1017.7 -9.9 -9.999 -99.9 -99.99 -9.99
2019/09/17 06:24 PDT    2.37   2.43    3   83    5  58.5  68.9 1017.7 -9.9 -9.999 -99.9 -99.99 -9.99
2019/09/17 06:30 PDT    2.28   2.35    2   79    4  58.8  68.9 1017.8 -9.9 -9.999 -99.9 -99.99 -9.99
2019/09/17 06:36 PDT    2.19   2.26    3   83    5  58.3  69.1 1017.8 -9.9 -9.999 -99.9 -99.99 -9.99
2019/09/17 06:42 PDT    2.11   2.18    4   83    5  58.3  69.1 1017.8 -9.9 -9.999 -99.9 -99.99 -9.99
2019/09/17 06:48 PDT    2.03   2.13    3   88    4  58.5  69.1 1017.8 -9.9 -9.999 -99.9 -99.99 -9.99
2019/09/17 06:54 PDT    1.96   2.07    3   72    5  58.5  69.1 1017.8 -9.9 -9.999 -99.9 -99.99 -9.99
2019/09/17 07:00 PDT    1.89   2.00    4   78    5  58.5  69.1 1017.8 -9.9 -9.999 -99.9 -99.99 -9.99
2019/09/17 07:06 PDT    1.82   1.93    4   82    6  58.6  69.1 1017.9 -9.9 -9.999 -99.9 -99.99 -9.99
2019/09/17 07:12 PDT    1.76   1.89    1   71    5  58.8  69.1 1018.0 -9.9 -9.999 -99.9 -99.99 -9.99
2019/09/17 07:18 PDT    1.71   1.84    2   89    5  59.0  69.1 1018.0 -9.9 -9.999 -99.9 -99.99 -9.99
2019/09/17 07:24 PDT    1.66   1.77    3   85    4  59.0  69.1 1018.1 -9.9 -9.999 -99.9 -99.99 -9.99
2019/09/17 07:30 PDT    1.62   1.72    3   84    4  59.4  68.9 1018.1 -9.9 -9.999 -99.9 -99.99 -9.99
2019/09/17 07:36 PDT    1.58   1.67    3   87    4  59.5  68.9 1018.1 -9.9 -9.999 -99.9 -99.99 -9.99
2019/09/17 07:42 PDT    1.55   1.65    3   91    4  59.9  68.9 1018.1 -9.9 -9.999 -99.9 -99.99 -9.99
2019/09/17 07:48 PDT    1.52   1.61    2   91    4  60.3  68.9 1018.1 -9.9 -9.999 -99.9 -99.99 -9.99
2019/09/17 07:54 PDT    1.50   1.57    3   89    3  60.4  68.9 1018.2 -9.9 -9.999 -99.9 -99.99 -9.99
2019/09/17 08:00 PDT    1.48   1.55    2   95    3  61.0  68.9 1018.2 -9.9 -9.999 -99.9 -99.99 -9.99
2019/09/17 08:06 PDT    1.47   1.56    2  118    2  61.5  68.9 1018.2 -9.9 -9.999 -99.9 -99.99 -9.99
2019/09/17 08:12 PDT    1.46   1.59    2   98    3  61.7  68.9 1018.2 -9.9 -9.999 -99.9 -99.99 -9.99
2019/09/17 08:18 PDT    1.46   1.58    2  107    3  61.9  68.9 1018.2 -9.9 -9.999 -99.9 -99.99 -9.99
2019/09/17 08:24 PDT    1.46   1.58    2   97    3  62.2  68.7 1018.2 -9.9 -9.999 -99.9 -99.99 -9.99
2019/09/17 08:30 PDT    1.47   1.58    2  106    3  62.4  68.7 1018.3 -9.9 -9.999 -99.9 -99.99 -9.99
2019/09/17 08:36 PDT    1.49   1.60    3  106    4  62.2  68.7 1018.3 -9.9 -9.999 -99.9 -99.99 -9.99
2019/09/17 08:42 PDT    1.51   1.64    1  141    3  63.0  68.7 1018.4 -9.9 -9.999 -99.9 -99.99 -9.99
2019/09/17 08:48 PDT    1.53   1.69    1  223    2  62.4  68.7 1018.4 -9.9 -9.999 -99.9 -99.99 -9.99
2019/09/17 08:54 PDT    1.56   1.74    0  228    3  63.5  68.7 1018.4 -9.9 -9.999 -99.9 -99.99 -9.99
2019/09/17 09:00 PDT    1.60   1.81    0   79    2  64.4  68.5 1018.5 -9.9 -9.999 -99.9 -99.99 -9.99
2019/09/17 09:06 PDT    1.64   1.84    1  210    1  64.2  68.5 1018.6 -9.9 -9.999 -99.9 -99.99 -9.99
2019/09/17 09:12 PDT    1.68   1.86    1  262    2  62.8  68.5 1018.7 -9.9 -9.999 -99.9 -99.99 -9.99
2019/09/17 09:18 PDT    1.74   1.92    1  225    3  62.8  68.5 1018.7 -9.9 -9.999 -99.9 -99.99 -9.99
2019/09/17 09:24 PDT    1.79   1.99    2  255    3  63.0  68.5 1018.7 -9.9 -9.999 -99.9 -99.99 -9.99
2019/09/17 09:30 PDT    1.85   2.05    2  283    3  63.0  68.5 1018.8 -9.9 -9.999 -99.9 -99.99 -9.99
2019/09/17 09:36 PDT    1.92   2.13    2  277    4  63.0  68.5 1018.8 -9.9 -9.999 -99.9 -99.99 -9.99
2019/09/17 09:42 PDT    1.99   2.22    3  255    4  62.8  68.5 1018.8 -9.9 -9.999 -99.9 -99.99 -9.99
2019/09/17 09:48 PDT    2.06   2.31    3  235    4  62.8  68.5 1018.9 -9.9 -9.999 -99.9 -99.99 -9.99
2019/09/17 09:54 PDT    2.14   2.37    3  236    4  62.8  68.5 1018.9 -9.9 -9.999 -99.9 -99.99 -9.99
2019/09/17 10:00 PDT    2.23   2.44    3  254    5  62.8  68.5 1018.9 -9.9 -9.999 -99.9 -99.99 -9.99
2019/09/17 10:06 PDT    2.32   2.54    3  227    5  62.6  68.5 1018.9 -9.9 -9.999 -99.9 -99.99 -9.99
2019/09/17 10:12 PDT    2.41   2.65    4  243    4  63.0  68.4 1018.8 -9.9 -9.999 -99.9 -99.99 -9.99
2019/09/17 10:18 PDT    2.50   2.75    3  242    4  63.1  68.4 1018.8 -9.9 -9.999 -99.9 -99.99 -9.99
2019/09/17 10:24 PDT    2.60   2.85    4  245    4  63.3  68.4 1018.8 -9.9 -9.999 -99.9 -99.99 -9.99
2019/09/17 10:30 PDT    2.71   2.97    5  257    5  63.7  68.4 1018.8 -9.9 -9.999 -99.9 -99.99 -9.99
2019/09/17 10:36 PDT    2.81   3.07    4  272    5  64.0  68.4 1018.8 -9.9 -9.999 -99.9 -99.99 -9.99
2019/09/17 10:42 PDT    2.92   3.17    3  271    4  64.6  68.4 1018.8 -9.9 -9.999 -99.9 -99.99 -9.99
2019/09/17 10:48 PDT    3.03   3.25    4  231    5  63.7  68.4 1018.7 -9.9 -9.999 -99.9 -99.99 -9.99
2019/09/17 10:54 PDT    3.15   3.38    3  240    4  63.9  68.2 1018.7 -9.9 -9.999 -99.9 -99.99 -9.99
2019/09/17 11:00 PDT    3.26   3.52    3  234    4  64.0  68.2 1018.7 -9.9 -9.999 -99.9 -99.99 -9.99
2019/09/17 11:06 PDT    3.38   3.66    4  239    5  63.9  68.2 1018.7 -9.9 -9.999 -99.9 -99.99 -9.99
2019/09/17 11:12 PDT    3.50   3.76    4  240    5  64.2  68.2 1018.7 -9.9 -9.999 -99.9 -99.99 -9.99
2019/09/17 11:18 PDT    3.62   3.84    4  234    6  64.6  68.2 1018.6 -9.9 -9.999 -99.9 -99.99 -9.99
2019/09/17 11:24 PDT    3.74   3.95    4  232    5  64.2  68.2 1018.7 -9.9 -9.999 -99.9 -99.99 -9.99
2019/09/17 11:30 PDT    3.86   4.06    4  236    5  64.4  68.4 1018.7 -9.9 -9.999 -99.9 -99.99 -9.99
2019/09/17 11:36 PDT    3.98   4.20    5  251    5  64.6  68.4 1018.7 -9.9 -9.999 -99.9 -99.99 -9.99
2019/09/17 11:42 PDT    4.09   4.34    4  249    6  64.9  68.4 1018.7 -9.9 -9.999 -99.9 -99.99 -9.99
2019/09/17 11:48 PDT    4.21   4.45    5  254    6  64.9  68.4 1018.7 -9.9 -9.999 -99.9 -99.99 -9.99
2019/09/17 11:54 PDT    4.33   4.54    4  255    5  65.1  68.4 1018.7 -9.9 -9.999 -99.9 -99.99 -9.99
2019/09/17 12:00 PDT    4.44   4.62    3  273    5  66.0  68.4 1018.7 -9.9 -9.999 -99.9 -99.99 -9.99
2019/09/17 12:06 PDT    4.56   4.71    4  265    5  66.2  68.4 1018.7 -9.9 -9.999 -99.9 -99.99 -9.99
2019/09/17 12:12 PDT    4.67   4.85    4  268    5  65.8  68.5 1018.6 -9.9 -9.999 -99.9 -99.99 -9.99
2019/09/17 12:18 PDT    4.78   4.96    5  264    7  65.8  68.5 1018.7 -9.9 -9.999 -99.9 -99.99 -9.99
2019/09/17 12:24 PDT    4.88   5.07    5  273    7  66.9  68.5 1018.6 -9.9 -9.999 -99.9 -99.99 -9.99
2019/09/17 12:30 PDT    4.99   5.17    4  269    7  68.7  68.7 1018.5 -9.9 -9.999 -99.9 -99.99 -9.99
2019/09/17 12:36 PDT    5.08   5.25    2  325    6  69.8  68.9 1018.5 -9.9 -9.999 -99.9 -99.99 -9.99
2019/09/17 12:42 PDT    5.18   5.33    3  265    4  70.2  68.9 1018.5 -9.9 -9.999 -99.9 -99.99 -9.99
2019/09/17 12:48 PDT    5.27   5.43    5  261    6  69.4  69.1 1018.3 -9.9 -9.999 -99.9 -99.99 -9.99
2019/09/17 12:54 PDT    5.36   5.53    5  263    6  68.5  69.1 1018.3 -9.9 -9.999 -99.9 -99.99 -9.99
2019/09/17 13:00 PDT    5.45   5.61    5  264    6  68.7  69.1 1018.3 -9.9 -9.999 -99.9 -99.99 -9.99
2019/09/17 13:06 PDT    5.53   5.68    5  264    6  68.9  69.1 1018.2 -9.9 -9.999 -99.9 -99.99 -9.99
2019/09/17 13:12 PDT    5.60   5.77    4  261    5  68.5  69.3 1018.2 -9.9 -9.999 -99.9 -99.99 -9.99
2019/09/17 13:18 PDT    5.67   5.86    4  256    5  68.5  69.3 1018.2 -9.9 -9.999 -99.9 -99.99 -9.99
2019/09/17 13:24 PDT    5.74   5.94    5  251    5  68.0  69.3 1018.2 -9.9 -9.999 -99.9 -99.99 -9.99
2019/09/17 13:30 PDT    5.80   6.01    4  214    5  67.3  69.3 1018.1 -9.9 -9.999 -99.9 -99.99 -9.99
2019/09/17 13:36 PDT    5.86   6.07    4  215    5  67.1  69.3 1018.1 -9.9 -9.999 -99.9 -99.99 -9.99
2019/09/17 13:42 PDT    5.91   6.12    4  219    6  67.6  69.3 1018.1 -9.9 -9.999 -99.9 -99.99 -9.99
2019/09/17 13:48 PDT    5.96   6.18    6  223   10  68.0  69.3 1018.1 -9.9 -9.999 -99.9 -99.99 -9.99
2019/09/17 13:54 PDT    6.00   6.24   10  256   11  68.5  69.4 1018.1 -9.9 -9.999 -99.9 -99.99 -9.99
2019/09/17 14:00 PDT    6.03   6.29    8  260   10  68.4  69.4 1018.0 -9.9 -9.999 -99.9 -99.99 -9.99
2019/09/17 14:06 PDT    6.06   6.31    8  275   11  69.1  69.4 1018.0 -9.9 -9.999 -99.9 -99.99 -9.99
2019/09/17 14:12 PDT    6.09   6.33    8  267   11  69.3  69.4 1017.9 -9.9 -9.999 -99.9 -99.99 -9.99
2019/09/17 14:18 PDT    6.11   6.37    8  271   11  69.4  69.4 1017.9 -9.9 -9.999 -99.9 -99.99 -9.99
2019/09/17 14:24 PDT    6.12   6.40   10  280   12  69.3  69.4 1017.8 -9.9 -9.999 -99.9 -99.99 -9.99
2019/09/17 14:30 PDT    6.13   6.40    9  279   11  69.4  69.4 1017.8 -9.9 -9.999 -99.9 -99.99 -9.99
2019/09/17 14:36 PDT    6.13   6.38    7  274   12  69.6  69.4 1017.8 -9.9 -9.999 -99.9 -99.99 -9.99
2019/09/17 14:42 PDT    6.13   6.39   10  276   12  69.3  69.4 1017.8 -9.9 -9.999 -99.9 -99.99 -9.99
2019/09/17 14:48 PDT    6.12   6.38    9  272   12  69.4  69.4 1017.7 -9.9 -9.999 -99.9 -99.99 -9.99
2019/09/17 14:54 PDT    6.10   6.36   11  281   13  68.7  69.4 1017.7 -9.9 -9.999 -99.9 -99.99 -9.99
2019/09/17 15:00 PDT    6.08   6.32   10  278   13  68.7  69.4 1017.7 -9.9 -9.999 -99.9 -99.99 -9.99
2019/09/17 15:06 PDT    6.05   6.28   10  279   12  68.7  69.4 1017.7 -9.9 -9.999 -99.9 -99.99 -9.99
2019/09/17 15:12 PDT    6.02   6.28   10  278   12  68.7  69.4 1017.6 -9.9 -9.999 -99.9 -99.99 -9.99
2019/09/17 15:18 PDT    5.97   6.26   11  278   14  68.4  69.3 1017.5 -9.9 -9.999 -99.9 -99.99 -9.99
2019/09/17 15:24 PDT    5.93   6.19   10  281   15  68.7  69.3 1017.4 -9.9 -9.999 -99.9 -99.99 -9.99
2019/09/17 15:30 PDT    5.88   6.12   10  278   14  68.9  69.3 1017.3 -9.9 -9.999 -99.9 -99.99 -9.99
2019/09/17 15:36 PDT    5.82   6.07   10  282   16  69.1  69.3 1017.2 -9.9 -9.999 -99.9 -99.99 -9.99
2019/09/17 15:42 PDT    5.75   6.02   10  278   12  68.5  69.3 1017.2 -9.9 -9.999 -99.9 -99.99 -9.99
2019/09/17 15:48 PDT    5.68   5.98    9  278   12  68.9  69.3 1017.1 -9.9 -9.999 -99.9 -99.99 -9.99
2019/09/17 15:54 PDT    5.61   5.90    9  277   12  68.7  69.3 1017.0 -9.9 -9.999 -99.9 -99.99 -9.99
2019/09/17 16:00 PDT    5.52   5.79   10  276   14  68.5  69.3 1016.9 -9.9 -9.999 -99.9 -99.99 -9.99
2019/09/17 16:06 PDT    5.44   5.67    9  276   13  68.5  69.3 1016.9 -9.9 -9.999 -99.9 -99.99 -9.99
2019/09/17 16:12 PDT    5.34   5.57   10  277   14  68.4  69.3 1016.9 -9.9 -9.999 -99.9 -99.99 -9.99
2019/09/17 16:18 PDT    5.25   5.48   11  275   15  68.5  69.3 1016.8 -9.9 -9.999 -99.9 -99.99 -9.99
2019/09/17 16:24 PDT    5.14   5.37   11  279   16  68.5  69.3 1016.8 -9.9 -9.999 -99.9 -99.99 -9.99
2019/09/17 16:30 PDT    5.04   5.25   11  277   15  68.7  69.4 1016.8 -9.9 -9.999 -99.9 -99.99 -9.99
2019/09/17 16:36 PDT    4.93   5.13   10  279   15  68.4  69.4 1016.8 -9.9 -9.999 -99.9 -99.99 -9.99
2019/09/17 16:42 PDT    4.81   5.00   12  280   16  68.4  69.4 1016.8 -9.9 -9.999 -99.9 -99.99 -9.99
2019/09/17 16:48 PDT    4.69   4.89   12  277   16  67.6  69.4 1016.8 -9.9 -9.999 -99.9 -99.99 -9.99
2019/09/17 16:54 PDT    4.57   4.79   12  278   17  67.6  69.6 1016.8 -9.9 -9.999 -99.9 -99.99 -9.99
2019/09/17 17:00 PDT    4.45   4.67   12  282   15  68.0  69.6 1016.7 -9.9 -9.999 -99.9 -99.99 -9.99
2019/09/17 17:06 PDT    4.32   4.56   12  281   15  67.8  69.8 1016.7 -9.9 -9.999 -99.9 -99.99 -9.99
2019/09/17 17:12 PDT    4.20   4.43   11  279   16  68.0  69.8 1016.6 -9.9 -9.999 -99.9 -99.99 -9.99
2019/09/17 17:18 PDT    4.07   4.30   12  278   17  68.0  69.8 1016.6 -9.9 -9.999 -99.9 -99.99 -9.99
2019/09/17 17:24 PDT    3.93   4.18   12  278   16  67.8  69.8 1016.6 -9.9 -9.999 -99.9 -99.99 -9.99
2019/09/17 17:30 PDT    3.80   4.04   11  280   16  68.0  69.8 1016.5 -9.9 -9.999 -99.9 -99.99 -9.99
2019/09/17 17:36 PDT    3.67   3.93   12  280   16  68.0  70.0 1016.5 -9.9 -9.999 -99.9 -99.99 -9.99
2019/09/17 17:42 PDT    3.54   3.81   13  278   17  67.6  70.0 1016.5 -9.9 -9.999 -99.9 -99.99 -9.99
2019/09/17 17:48 PDT    3.41   3.66   11  276   15  67.5  70.0 1016.4 -9.9 -9.999 -99.9 -99.99 -9.99
2019/09/17 17:54 PDT    3.28   3.53   12  278   16  67.3  70.0 1016.5 -9.9 -9.999 -99.9 -99.99 -9.99
2019/09/17 18:00 PDT    3.15   3.40   11  272   15  67.1  70.2 1016.4 -9.9 -9.999 -99.9 -99.99 -9.99
2019/09/17 18:06 PDT    3.03   3.29   13  279   16  66.7  70.2 1016.4 -9.9 -9.999 -99.9 -99.99 -9.99
2019/09/17 18:12 PDT    2.90   3.16   11  278   16  66.9  70.3 1016.4 -9.9 -9.999 -99.9 -99.99 -9.99
2019/09/17 18:18 PDT    2.78   3.03   11  272   17  66.7  70.3 1016.4 -9.9 -9.999 -99.9 -99.99 -9.99
2019/09/17 18:24 PDT    2.66   2.92   11  275   15  66.6  70.3 1016.4 -9.9 -9.999 -99.9 -99.99 -9.99
2019/09/17 18:30 PDT    2.55   2.81   12  277   17  66.6  70.3 1016.3 -9.9 -9.999 -99.9 -99.99 -9.99
2019/09/17 18:36 PDT    2.44   2.70   12  279   16  66.4  70.5 1016.3 -9.9 -9.999 -99.9 -99.99 -9.99
2019/09/17 18:42 PDT    2.33   2.59   13  278   17  66.0  70.5 1016.3 -9.9 -9.999 -99.9 -99.99 -9.99
2019/09/17 18:48 PDT    2.23   2.51   12  278   18  66.0  70.5 1016.3 -9.9 -9.999 -99.9 -99.99 -9.99
2019/09/17 18:54 PDT    2.13   2.43   14  280   17  65.7  70.5 1016.2 -9.9 -9.999 -99.9 -99.99 -9.99
2019/09/17 19:00 PDT    2.04   2.32   11  283   16  65.7  70.5 1016.2 -9.9 -9.999 -99.9 -99.99 -9.99
2019/09/17 19:06 PDT    1.95   2.22   10  281   17  65.5  70.7 1016.2 -9.9 -9.999 -99.9 -99.99 -9.99
2019/09/17 19:12 PDT    1.86   2.13   10  283   14  65.3  70.7 1016.2 -9.9 -9.999 -99.9 -99.99 -9.99
2019/09/17 19:18 PDT    1.78   2.04   11  279   13  65.3  70.7 1016.2 -9.9 -9.999 -99.9 -99.99 -9.99
2019/09/17 19:24 PDT    1.71   1.97   11  280   15  65.1  70.7 1016.1 -9.9 -9.999 -99.9 -99.99 -9.99
2019/09/17 19:30 PDT    1.64   1.91   10  281   14  65.3  70.7 1016.1 -9.9 -9.999 -99.9 -99.99 -9.99
2019/09/17 19:36 PDT    1.58   1.85   11  280   14  65.3  70.7 1016.2 -9.9 -9.999 -99.9 -99.99 -9.99
2019/09/17 19:42 PDT    1.52   1.77   11  280   15  64.9  70.7 1016.2 -9.9 -9.999 -99.9 -99.99 -9.99
2019/09/17 19:48 PDT    1.46   1.71   10  283   13  64.9  70.7 1016.1 -9.9 -9.999 -99.9 -99.99 -9.99
2019/09/17 19:54 PDT    1.42   1.67   10  284   14  64.8  70.7 1016.2 -9.9 -9.999 -99.9 -99.99 -9.99
2019/09/17 20:00 PDT    1.37   1.62    8  283   12  64.9  70.7 1016.2 -9.9 -9.999 -99.9 -99.99 -9.99
2019/09/17 20:06 PDT    1.34   1.57   10  282   15  65.1  70.7 1016.2 -9.9 -9.999 -99.9 -99.99 -9.99
2019/09/17 20:12 PDT    1.30   1.54   10  284   14  65.1  70.7 1016.2 -9.9 -9.999 -99.9 -99.99 -9.99
2019/09/17 20:18 PDT    1.28   1.51    9  282   15  65.1  70.7 1016.3 -9.9 -9.999 -99.9 -99.99 -9.99
2019/09/17 20:24 PDT    1.25   1.48    9  281   13  64.9  70.7 1016.3 -9.9 -9.999 -99.9 -99.99 -9.99
2019/09/17 20:30 PDT    1.24   1.46    9  280   11  64.9  70.7 1016.3 -9.9 -9.999 -99.9 -99.99 -9.99
2019/09/17 20:36 PDT    1.23   1.44    8  282   12  64.9  70.5 1016.4 -9.9 -9.999 -99.9 -99.99 -9.99
2019/09/17 20:42 PDT    1.22   1.45    8  285   11  64.8  70.5 1016.4 -9.9 -9.999 -99.9 -99.99 -9.99
2019/09/17 20:48 PDT    1.22   1.46    8  278   11  64.9  70.3 1016.4 -9.9 -9.999 -99.9 -99.99 -9.99
2019/09/17 20:54 PDT    1.22   1.45    9  279   11  64.4  70.3 1016.4 -9.9 -9.999 -99.9 -99.99 -9.99
2019/09/17 21:00 PDT    1.23   1.42    7  280   10  64.6  70.3 1016.4 -9.9 -9.999 -99.9 -99.99 -9.99
2019/09/17 21:06 PDT    1.24   1.41    7  279    9  64.6  70.3 1016.4 -9.9 -9.999 -99.9 -99.99 -9.99
2019/09/17 21:12 PDT    1.26   1.45    7  279   10  64.8  70.3 1016.4 -9.9 -9.999 -99.9 -99.99 -9.99
2019/09/17 21:18 PDT    1.28   1.49    8  278   10  64.4  70.3 1016.3 -9.9 -9.999 -99.9 -99.99 -9.99
2019/09/17 21:24 PDT    1.31   1.51    7  277   10  64.2  70.2 1016.4 -9.9 -9.999 -99.9 -99.99 -9.99
2019/09/17 21:30 PDT    1.34   1.52    7  278   10  64.0  70.2 1016.3 -9.9 -9.999 -99.9 -99.99 -9.99
2019/09/17 21:36 PDT    1.38   1.55    7  281   10  63.9  70.0 1016.4 -9.9 -9.999 -99.9 -99.99 -9.99
2019/09/17 21:42 PDT    1.42   1.58    5  269    8  64.0  70.0 1016.3 -9.9 -9.999 -99.9 -99.99 -9.99
2019/09/17 21:48 PDT    1.47   1.62    5  276    7  63.9  70.0 1016.3 -9.9 -9.999 -99.9 -99.99 -9.99
2019/09/17 21:54 PDT    1.52   1.70    3  262    6  64.2  69.8 1016.2 -9.9 -9.999 -99.9 -99.99 -9.99
2019/09/17 22:00 PDT    1.57   1.77    4  272    6  64.2  69.8 1016.2 -9.9 -9.999 -99.9 -99.99 -9.99
2019/09/17 22:06 PDT    1.63   1.83    4  273    6  64.2  69.8 1016.1 -9.9 -9.999 -99.9 -99.99 -9.99
2019/09/17 22:12 PDT    1.70   1.90    4  274    6  64.2  69.8 1016.0 -9.9 -9.999 -99.9 -99.99 -9.99
2019/09/17 22:18 PDT    1.76   1.95    5  280    6  64.0  69.8 1016.0 -9.9 -9.999 -99.9 -99.99 -9.99
2019/09/17 22:24 PDT    1.84   2.01    3  280    6  64.0  69.8 1016.0 -9.9 -9.999 -99.9 -99.99 -9.99
2019/09/17 22:30 PDT    1.91   2.08    4  282    5  64.0  69.6 1015.9 -9.9 -9.999 -99.9 -99.99 -9.99
2019/09/17 22:36 PDT    1.99   2.18    5  290    6  64.0  69.6 1015.9 -9.9 -9.999 -99.9 -99.99 -9.99
2019/09/17 22:42 PDT    2.07   2.29    4  292    6  64.0  69.6 1015.8 -9.9 -9.999 -99.9 -99.99 -9.99
2019/09/17 22:48 PDT    2.16   2.38    4  293    7  64.0  69.6 1015.8 -9.9 -9.999 -99.9 -99.99 -9.99
2019/09/17 22:54 PDT    2.24   2.47    4  286    5  64.0  69.6 1015.8 -9.9 -9.999 -99.9 -99.99 -9.99
2019/09/17 23:00 PDT    2.33   2.54    4  284    6  64.2  69.6 1015.7 -9.9 -9.999 -99.9 -99.99 -9.99
2019/09/17 23:06 PDT    2.43   2.60    5  284    7  64.4  69.6 1015.7 -9.9 -9.999 -99.9 -99.99 -9.99
2019/09/17 23:12 PDT    2.52   2.68    4  286    6  64.9  69.6 1015.6 -9.9 -9.999 -99.9 -99.99 -9.99
2019/09/17 23:18 PDT    2.62   2.79    5  282    6  64.4  69.6 1015.6 -9.9 -9.999 -99.9 -99.99 -9.99
2019/09/17 23:24 PDT    2.72   2.90    5  282    6  64.2  69.4 1015.6 -9.9 -9.999 -99.9 -99.99 -9.99
2019/09/17 23:30 PDT    2.82   3.02    5  280    6  64.4  69.4 1015.6 -9.9 -9.999 -99.9 -99.99 -9.99
2019/09/17 23:36 PDT    2.92   3.13    4  269    5  64.4  69.4 1015.6 -9.9 -9.999 -99.9 -99.99 -9.99
2019/09/17 23:42 PDT    3.02 -99.99 -999 -999 -999 -99.9 -99.9 -999.9 -9.9 -9.999 -99.9 -99.99 -9.99
2019/09/17 23:48 PDT    3.13 -99.99 -999 -999 -999 -99.9 -99.9 -999.9 -9.9 -9.999 -99.9 -99.99 -9.99
2019/09/17 23:54 PDT    3.23 -99.99 -999 -999 -999 -99.9 -99.9 -999.9 -9.9 -9.999 -99.9 -99.99 -9.99
2019/09/18 00:00 PDT    3.33 -99.99 -999 -999 -999 -99.9 -99.9 -999.9 -9.9 -9.999 -99.9 -99.99 -9.99
2019/09/18 00:06 PDT    3.44 -99.99 -999 -999 -999 -99.9 -99.9 -999.9 -9.9 -9.999 -99.9 -99.99 -9.99
2019/09/18 00:12 PDT    3.54 -99.99 -999 -999 -999 -99.9 -99.9 -999.9 -9.9 -9.999 -99.9 -99.99 -9.99
2019/09/18 00:18 PDT    3.64 -99.99 -999 -999 -999 -99.9 -99.9 -999.9 -9.9 -9.999 -99.9 -99.99 -9.99
2019/09/18 00:24 PDT    3.74 -99.99 -999 -999 -999 -99.9 -99.9 -999.9 -9.9 -9.999 -99.9 -99.99 -9.99
2019/09/18 00:30 PDT    3.84 -99.99 -999 -999 -999 -99.9 -99.9 -999.9 -9.9 -9.999 -99.9 -99.99 -9.99
2019/09/18 00:36 PDT    3.93 -99.99 -999 -999 -999 -99.9 -99.9 -999.9 -9.9 -9.999 -99.9 -99.99 -9.99
2019/09/18 00:42 PDT    4.03 -99.99 -999 -999 -999 -99.9 -99.9 -999.9 -9.9 -9.999 -99.9 -99.99 -9.99
2019/09/18 00:48 PDT    4.12 -99.99 -999 -999 -999 -99.9 -99.9 -999.9 -9.9 -9.999 -99.9 -99.99 -9.99
2019/09/18 00:54 PDT    4.21 -99.99 -999 -999 -999 -99.9 -99.9 -999.9 -9.9 -9.999 -99.9 -99.99 -9.99
2019/09/18 01:00 PDT    4.30 -99.99 -999 -999 -999 -99.9 -99.9 -999.9 -9.9 -9.999 -99.9 -99.99 -9.99
2019/09/18 01:06 PDT    4.38 -99.99 -999 -999 -999 -99.9 -99.9 -999.9 -9.9 -9.999 -99.9 -99.99 -9.99
2019/09/18 01:12 PDT    4.47 -99.99 -999 -999 -999 -99.9 -99.9 -999.9 -9.9 -9.999 -99.9 -99.99 -9.99
2019/09/18 01:18 PDT    4.54 -99.99 -999 -999 -999 -99.9 -99.9 -999.9 -9.9 -9.999 -99.9 -99.99 -9.99
2019/09/18 01:24 PDT    4.62 -99.99 -999 -999 -999 -99.9 -99.9 -999.9 -9.9 -9.999 -99.9 -99.99 -9.99
2019/09/18 01:30 PDT    4.69 -99.99 -999 -999 -999 -99.9 -99.9 -999.9 -9.9 -9.999 -99.9 -99.99 -9.99
2019/09/18 01:36 PDT    4.76 -99.99 -999 -999 -999 -99.9 -99.9 -999.9 -9.9 -9.999 -99.9 -99.99 -9.99
2019/09/18 01:42 PDT    4.83 -99.99 -999 -999 -999 -99.9 -99.9 -999.9 -9.9 -9.999 -99.9 -99.99 -9.99
2019/09/18 01:48 PDT    4.89 -99.99 -999 -999 -999 -99.9 -99.9 -999.9 -9.9 -9.999 -99.9 -99.99 -9.99
2019/09/18 01:54 PDT    4.95 -99.99 -999 -999 -999 -99.9 -99.9 -999.9 -9.9 -9.999 -99.9 -99.99 -9.99
2019/09/18 02:00 PDT    5.00 -99.99 -999 -999 -999 -99.9 -99.9 -999.9 -9.9 -9.999 -99.9 -99.99 -9.99
2019/09/18 02:06 PDT    5.05 -99.99 -999 -999 -999 -99.9 -99.9 -999.9 -9.9 -9.999 -99.9 -99.99 -9.99
2019/09/18 02:12 PDT    5.10 -99.99 -999 -999 -999 -99.9 -99.9 -999.9 -9.9 -9.999 -99.9 -99.99 -9.99
2019/09/18 02:18 PDT    5.14 -99.99 -999 -999 -999 -99.9 -99.9 -999.9 -9.9 -9.999 -99.9 -99.99 -9.99
2019/09/18 02:24 PDT    5.18 -99.99 -999 -999 -999 -99.9 -99.9 -999.9 -9.9 -9.999 -99.9 -99.99 -9.99
2019/09/18 02:30 PDT    5.21 -99.99 -999 -999 -999 -99.9 -99.9 -999.9 -9.9 -9.999 -99.9 -99.99 -9.99
2019/09/18 02:36 PDT    5.24 -99.99 -999 -999 -999 -99.9 -99.9 -999.9 -9.9 -9.999 -99.9 -99.99 -9.99
2019/09/18 02:42 PDT    5.27 -99.99 -999 -999 -999 -99.9 -99.9 -999.9 -9.9 -9.999 -99.9 -99.99 -9.99
2019/09/18 02:48 PDT    5.29 -99.99 -999 -999 -999 -99.9 -99.9 -999.9 -9.9 -9.999 -99.9 -99.99 -9.99
2019/09/18 02:54 PDT    5.30 -99.99 -999 -999 -999 -99.9 -99.9 -999.9 -9.9 -9.999 -99.9 -99.99 -9.99
2019/09/18 03:00 PDT    5.32 -99.99 -999 -999 -999 -99.9 -99.9 -999.9 -9.9 -9.999 -99.9 -99.99 -9.99
2019/09/18 03:06 PDT    5.32 -99.99 -999 -999 -999 -99.9 -99.9 -999.9 -9.9 -9.999 -99.9 -99.99 -9.99
2019/09/18 03:12 PDT    5.32 -99.99 -999 -999 -999 -99.9 -99.9 -999.9 -9.9 -9.999 -99.9 -99.99 -9.99
2019/09/18 03:18 PDT    5.32 -99.99 -999 -999 -999 -99.9 -99.9 -999.9 -9.9 -9.999 -99.9 -99.99 -9.99
2019/09/18 03:24 PDT    5.32 -99.99 -999 -999 -999 -99.9 -99.9 -999.9 -9.9 -9.999 -99.9 -99.99 -9.99
2019/09/18 03:30 PDT    5.30 -99.99 -999 -999 -999 -99.9 -99.9 -999.9 -9.9 -9.999 -99.9 -99.99 -9.99
2019/09/18 03:36 PDT    5.29 -99.99 -999 -999 -999 -99.9 -99.9 -999.9 -9.9 -9.999 -99.9 -99.99 -9.99
2019/09/18 03:42 PDT    5.26 -99.99 -999 -999 -999 -99.9 -99.9 -999.9 -9.9 -9.999 -99.9 -99.99 -9.99
2019/09/18 03:48 PDT    5.24 -99.99 -999 -999 -999 -99.9 -99.9 -999.9 -9.9 -9.999 -99.9 -99.99 -9.99
2019/09/18 03:54 PDT    5.20 -99.99 -999 -999 -999 -99.9 -99.9 -999.9 -9.9 -9.999 -99.9 -99.99 -9.99
2019/09/18 04:00 PDT    5.17 -99.99 -999 -999 -999 -99.9 -99.9 -999.9 -9.9 -9.999 -99.9 -99.99 -9.99
2019/09/18 04:06 PDT    5.13 -99.99 -999 -999 -999 -99.9 -99.9 -999.9 -9.9 -9.999 -99.9 -99.99 -9.99
2019/09/18 04:12 PDT    5.08 -99.99 -999 -999 -999 -99.9 -99.9 -999.9 -9.9 -9.999 -99.9 -99.99 -9.99
2019/09/18 04:18 PDT    5.03 -99.99 -999 -999 -999 -99.9 -99.9 -999.9 -9.9 -9.999 -99.9 -99.99 -9.99
2019/09/18 04:24 PDT    4.97 -99.99 -999 -999 -999 -99.9 -99.9 -999.9 -9.9 -9.999 -99.9 -99.99 -9.99
2019/09/18 04:30 PDT    4.91 -99.99 -999 -999 -999 -99.9 -99.9 -999.9 -9.9 -9.999 -99.9 -99.99 -9.99
2019/09/18 04:36 PDT    4.84 -99.99 -999 -999 -999 -99.9 -99.9 -999.9 -9.9 -9.999 -99.9 -99.99 -9.99
2019/09/18 04:42 PDT    4.77 -99.99 -999 -999 -999 -99.9 -99.9 -999.9 -9.9 -9.999 -99.9 -99.99 -9.99
2019/09/18 04:48 PDT    4.70 -99.99 -999 -999 -999 -99.9 -99.9 -999.9 -9.9 -9.999 -99.9 -99.99 -9.99
2019/09/18 04:54 PDT    4.62 -99.99 -999 -999 -999 -99.9 -99.9 -999.9 -9.9 -9.999 -99.9 -99.99 -9.99
2019/09/18 05:00 PDT    4.54 -99.99 -999 -999 -999 -99.9 -99.9 -999.9 -9.9 -9.999 -99.9 -99.99 -9.99
2019/09/18 05:06 PDT    4.45 -99.99 -999 -999 -999 -99.9 -99.9 -999.9 -9.9 -9.999 -99.9 -99.99 -9.99
2019/09/18 05:12 PDT    4.37 -99.99 -999 -999 -999 -99.9 -99.9 -999.9 -9.9 -9.999 -99.9 -99.99 -9.99
2019/09/18 05:18 PDT    4.28 -99.99 -999 -999 -999 -99.9 -99.9 -999.9 -9.9 -9.999 -99.9 -99.99 -9.99
2019/09/18 05:24 PDT    4.18 -99.99 -999 -999 -999 -99.9 -99.9 -999.9 -9.9 -9.999 -99.9 -99.99 -9.99
2019/09/18 05:30 PDT    4.09 -99.99 -999 -999 -999 -99.9 -99.9 -999.9 -9.9 -9.999 -99.9 -99.99 -9.99
2019/09/18 05:36 PDT    3.99 -99.99 -999 -999 -999 -99.9 -99.9 -999.9 -9.9 -9.999 -99.9 -99.99 -9.99
2019/09/18 05:42 PDT    3.89 -99.99 -999 -999 -999 -99.9 -99.9 -999.9 -9.9 -9.999 -99.9 -99.99 -9.99
2019/09/18 05:48 PDT    3.79 -99.99 -999 -999 -999 -99.9 -99.9 -999.9 -9.9 -9.999 -99.9 -99.99 -9.99
2019/09/18 05:54 PDT    3.69 -99.99 -999 -999 -999 -99.9 -99.9 -999.9 -9.9 -9.999 -99.9 -99.99 -9.99